sensor_id;sensor_type;location;lat;lon;timestamp;P1;durP1;ratioP1;P2;durP2;ratioP2
7561;SDS011;3822;48.784;9.174;2022-10-31T00:01:13;6.30;;;3.67;;
7561;SDS011;3822;48.784;9.174;2022-10-31T00:03:44;12.10;;;4.33;;
7561;SDS011;3822;48.784;9.174;2022-10-31T00:06:11;6.10;;;3.97;;
7561;SDS011;3822;48.784;9.174;2022-10-31T00:08:37;8.83;;;4.30;;
7561;SDS011;3822;48.784;9.174;2022-10-31T00:11:07;6.53;;;3.70;;
7561;SDS011;3822;48.784;9.174;2022-10-31T00:13:35;7.57;;;4.07;;
7561;SDS011;3822;48.784;9.174;2022-10-31T00:16:02;8.23;;;4.50;;
7561;SDS011;3822;48.784;9.174;2022-10-31T00:18:28;7.63;;;4.07;;
7561;SDS011;3822;48.784;9.174;2022-10-31T00:21:02;6.13;;;3.97;;
7561;SDS011;3822;48.784;9.174;2022-10-31T00:23:29;7.87;;;4.00;;
7561;SDS011;3822;48.784;9.174;2022-10-31T00:26:00;8.30;;;4.03;;
7561;SDS011;3822;48.784;9.174;2022-10-31T00:28:28;5.90;;;3.80;;
7561;SDS011;3822;48.784;9.174;2022-10-31T00:31:02;7.27;;;4.10;;
7561;SDS011;3822;48.784;9.174;2022-10-31T00:33:33;12.10;;;5.23;;
7561;SDS011;3822;48.784;9.174;2022-10-31T00:36:02;11.23;;;5.13;;
7561;SDS011;3822;48.784;9.174;2022-10-31T00:38:30;5.43;;;4.03;;
7561;SDS011;3822;48.784;9.174;2022-10-31T00:40:57;9.13;;;4.30;;
7561;SDS011;3822;48.784;9.174;2022-10-31T00:43:23;12.50;;;4.30;;
7561;SDS011;3822;48.784;9.174;2022-10-31T00:45:50;7.47;;;4.13;;
7561;SDS011;3822;48.784;9.174;2022-10-31T00:48:16;14.83;;;4.50;;
7561;SDS011;3822;48.784;9.174;2022-10-31T00:50:43;7.40;;;3.60;;
7561;SDS011;3822;48.784;9.174;2022-10-31T00:53:09;8.53;;;4.47;;
7561;SDS011;3822;48.784;9.174;2022-10-31T00:55:36;8.27;;;4.70;;
7561;SDS011;3822;48.784;9.174;2022-10-31T00:58:02;7.47;;;3.83;;
7561;SDS011;3822;48.784;9.174;2022-10-31T01:00:29;6.73;;;3.60;;
7561;SDS011;3822;48.784;9.174;2022-10-31T01:02:55;7.03;;;3.70;;
7561;SDS011;3822;48.784;9.174;2022-10-31T01:05:22;6.33;;;3.83;;
7561;SDS011;3822;48.784;9.174;2022-10-31T01:07:49;5.80;;;3.97;;
7561;SDS011;3822;48.784;9.174;2022-10-31T01:10:15;7.23;;;4.37;;
7561;SDS011;3822;48.784;9.174;2022-10-31T01:12:44;6.97;;;3.93;;
7561;SDS011;3822;48.784;9.174;2022-10-31T01:15:14;8.63;;;3.87;;
7561;SDS011;3822;48.784;9.174;2022-10-31T01:17:47;7.00;;;3.50;;
7561;SDS011;3822;48.784;9.174;2022-10-31T01:20:14;11.13;;;4.30;;
7561;SDS011;3822;48.784;9.174;2022-10-31T01:22:41;13.33;;;3.97;;
7561;SDS011;3822;48.784;9.174;2022-10-31T01:25:08;6.13;;;3.50;;
7561;SDS011;3822;48.784;9.174;2022-10-31T01:27:35;4.80;;;3.60;;
7561;SDS011;3822;48.784;9.174;2022-10-31T01:30:02;8.23;;;4.40;;
7561;SDS011;3822;48.784;9.174;2022-10-31T01:32:31;7.90;;;3.83;;
7561;SDS011;3822;48.784;9.174;2022-10-31T01:34:57;5.40;;;3.80;;
7561;SDS011;3822;48.784;9.174;2022-10-31T01:37:24;10.27;;;4.70;;
7561;SDS011;3822;48.784;9.174;2022-10-31T01:39:50;6.70;;;3.80;;
7561;SDS011;3822;48.784;9.174;2022-10-31T01:42:21;5.07;;;3.60;;
7561;SDS011;3822;48.784;9.174;2022-10-31T01:44:53;5.93;;;3.07;;
7561;SDS011;3822;48.784;9.174;2022-10-31T01:47:32;7.00;;;4.00;;
7561;SDS011;3822;48.784;9.174;2022-10-31T01:50:08;9.43;;;3.90;;
7561;SDS011;3822;48.784;9.174;2022-10-31T01:52:43;4.13;;;3.40;;
7561;SDS011;3822;48.784;9.174;2022-10-31T01:55:15;7.53;;;3.50;;
7561;SDS011;3822;48.784;9.174;2022-10-31T01:57:53;7.07;;;3.10;;
7561;SDS011;3822;48.784;9.174;2022-10-31T02:00:24;6.57;;;3.97;;
7561;SDS011;3822;48.784;9.174;2022-10-31T02:02:51;9.13;;;4.10;;
7561;SDS011;3822;48.784;9.174;2022-10-31T02:05:21;8.10;;;3.80;;
7561;SDS011;3822;48.784;9.174;2022-10-31T02:10:27;8.07;;;4.20;;
7561;SDS011;3822;48.784;9.174;2022-10-31T02:12:58;8.90;;;3.63;;
7561;SDS011;3822;48.784;9.174;2022-10-31T02:15:28;6.77;;;4.17;;
7561;SDS011;3822;48.784;9.174;2022-10-31T02:17:57;5.53;;;3.77;;
7561;SDS011;3822;48.784;9.174;2022-10-31T02:20:25;8.07;;;3.57;;
7561;SDS011;3822;48.784;9.174;2022-10-31T02:32:25;7.90;;;3.70;;
7561;SDS011;3822;48.784;9.174;2022-10-31T02:38:22;8.00;;;3.60;;
7561;SDS011;3822;48.784;9.174;2022-10-31T02:49:31;7.03;;;3.27;;
7561;SDS011;3822;48.784;9.174;2022-10-31T02:52:16;5.00;;;2.60;;
7561;SDS011;3822;48.784;9.174;2022-10-31T02:54:50;7.57;;;3.77;;
7561;SDS011;3822;48.784;9.174;2022-10-31T02:57:19;9.20;;;3.40;;
7561;SDS011;3822;48.784;9.174;2022-10-31T02:59:53;5.33;;;3.47;;
7561;SDS011;3822;48.784;9.174;2022-10-31T03:02:29;11.10;;;3.90;;
7561;SDS011;3822;48.784;9.174;2022-10-31T03:13:34;5.03;;;3.00;;
7561;SDS011;3822;48.784;9.174;2022-10-31T03:22:14;7.50;;;4.23;;
7561;SDS011;3822;48.784;9.174;2022-10-31T03:24:24;8.10;;;4.37;;
7561;SDS011;3822;48.784;9.174;2022-10-31T03:26:57;6.90;;;4.20;;
7561;SDS011;3822;48.784;9.174;2022-10-31T03:29:27;9.20;;;4.90;;
7561;SDS011;3822;48.784;9.174;2022-10-31T03:31:58;7.00;;;3.87;;
7561;SDS011;3822;48.784;9.174;2022-10-31T03:34:30;12.07;;;4.73;;
7561;SDS011;3822;48.784;9.174;2022-10-31T03:36:59;6.13;;;3.90;;
7561;SDS011;3822;48.784;9.174;2022-10-31T03:39:29;6.23;;;3.63;;
7561;SDS011;3822;48.784;9.174;2022-10-31T03:42:20;5.50;;;3.90;;
7561;SDS011;3822;48.784;9.174;2022-10-31T03:44:52;4.77;;;3.13;;
7561;SDS011;3822;48.784;9.174;2022-10-31T03:47:32;7.07;;;3.70;;
7561;SDS011;3822;48.784;9.174;2022-10-31T03:50:01;6.10;;;3.80;;
7561;SDS011;3822;48.784;9.174;2022-10-31T03:52:29;6.10;;;3.40;;
7561;SDS011;3822;48.784;9.174;2022-10-31T03:55:18;6.67;;;4.10;;
7561;SDS011;3822;48.784;9.174;2022-10-31T04:00:38;5.60;;;3.57;;
7561;SDS011;3822;48.784;9.174;2022-10-31T04:03:11;5.07;;;3.63;;
7561;SDS011;3822;48.784;9.174;2022-10-31T04:05:43;10.07;;;4.20;;
7561;SDS011;3822;48.784;9.174;2022-10-31T04:08:14;6.33;;;3.60;;
7561;SDS011;3822;48.784;9.174;2022-10-31T04:10:46;6.20;;;4.03;;
7561;SDS011;3822;48.784;9.174;2022-10-31T04:13:16;5.87;;;3.30;;
7561;SDS011;3822;48.784;9.174;2022-10-31T04:15:49;6.80;;;3.80;;
7561;SDS011;3822;48.784;9.174;2022-10-31T04:18:18;6.00;;;3.80;;
7561;SDS011;3822;48.784;9.174;2022-10-31T04:20:44;7.40;;;3.80;;
7561;SDS011;3822;48.784;9.174;2022-10-31T04:23:19;6.57;;;3.87;;
7561;SDS011;3822;48.784;9.174;2022-10-31T04:25:49;6.90;;;4.00;;
7561;SDS011;3822;48.784;9.174;2022-10-31T04:28:15;6.00;;;4.37;;
7561;SDS011;3822;48.784;9.174;2022-10-31T04:30:42;8.77;;;3.60;;
7561;SDS011;3822;48.784;9.174;2022-10-31T04:33:08;7.27;;;3.60;;
7561;SDS011;3822;48.784;9.174;2022-10-31T04:35:35;5.27;;;3.30;;
7561;SDS011;3822;48.784;9.174;2022-10-31T04:38:01;7.87;;;3.27;;
7561;SDS011;3822;48.784;9.174;2022-10-31T04:40:28;7.20;;;3.90;;
7561;SDS011;3822;48.784;9.174;2022-10-31T04:42:54;8.50;;;4.17;;
7561;SDS011;3822;48.784;9.174;2022-10-31T04:45:21;6.80;;;3.50;;
7561;SDS011;3822;48.784;9.174;2022-10-31T04:47:47;8.73;;;3.80;;
7561;SDS011;3822;48.784;9.174;2022-10-31T04:50:14;7.13;;;3.73;;
7561;SDS011;3822;48.784;9.174;2022-10-31T04:52:44;8.57;;;4.57;;
7561;SDS011;3822;48.784;9.174;2022-10-31T04:55:12;5.80;;;3.57;;
7561;SDS011;3822;48.784;9.174;2022-10-31T04:57:46;8.40;;;4.07;;
7561;SDS011;3822;48.784;9.174;2022-10-31T05:00:16;6.70;;;4.13;;
7561;SDS011;3822;48.784;9.174;2022-10-31T05:02:49;7.93;;;3.80;;
7561;SDS011;3822;48.784;9.174;2022-10-31T05:05:24;5.17;;;3.43;;
7561;SDS011;3822;48.784;9.174;2022-10-31T05:07:54;5.70;;;3.70;;
7561;SDS011;3822;48.784;9.174;2022-10-31T05:10:22;6.67;;;3.80;;
7561;SDS011;3822;48.784;9.174;2022-10-31T05:12:53;5.17;;;3.63;;
7561;SDS011;3822;48.784;9.174;2022-10-31T05:15:23;5.90;;;3.50;;
7561;SDS011;3822;48.784;9.174;2022-10-31T05:17:51;9.00;;;3.97;;
7561;SDS011;3822;48.784;9.174;2022-10-31T05:20:19;5.20;;;3.60;;
7561;SDS011;3822;48.784;9.174;2022-10-31T05:22:50;7.93;;;3.73;;
7561;SDS011;3822;48.784;9.174;2022-10-31T05:25:20;4.97;;;3.10;;
7561;SDS011;3822;48.784;9.174;2022-10-31T05:27:50;8.50;;;3.80;;
7561;SDS011;3822;48.784;9.174;2022-10-31T05:30:18;7.10;;;3.67;;
7561;SDS011;3822;48.784;9.174;2022-10-31T05:32:49;8.43;;;3.87;;
7561;SDS011;3822;48.784;9.174;2022-10-31T05:35:17;5.73;;;3.63;;
7561;SDS011;3822;48.784;9.174;2022-10-31T05:37:46;4.80;;;3.60;;
7561;SDS011;3822;48.784;9.174;2022-10-31T05:40:14;6.83;;;3.50;;
7561;SDS011;3822;48.784;9.174;2022-10-31T05:42:42;7.50;;;3.53;;
7561;SDS011;3822;48.784;9.174;2022-10-31T05:45:10;9.57;;;3.97;;
7561;SDS011;3822;48.784;9.174;2022-10-31T05:47:42;6.50;;;3.80;;
7561;SDS011;3822;48.784;9.174;2022-10-31T05:50:18;5.60;;;3.20;;
7561;SDS011;3822;48.784;9.174;2022-10-31T05:52:44;5.37;;;3.40;;
7561;SDS011;3822;48.784;9.174;2022-10-31T05:55:11;6.50;;;3.37;;
7561;SDS011;3822;48.784;9.174;2022-10-31T05:57:37;6.17;;;3.47;;
7561;SDS011;3822;48.784;9.174;2022-10-31T06:00:04;5.83;;;3.20;;
7561;SDS011;3822;48.784;9.174;2022-10-31T06:02:32;8.60;;;3.37;;
7561;SDS011;3822;48.784;9.174;2022-10-31T06:05:00;8.00;;;3.80;;
7561;SDS011;3822;48.784;9.174;2022-10-31T06:07:31;7.43;;;3.30;;
7561;SDS011;3822;48.784;9.174;2022-10-31T06:09:59;6.17;;;4.00;;
7561;SDS011;3822;48.784;9.174;2022-10-31T06:12:28;7.40;;;4.10;;
7561;SDS011;3822;48.784;9.174;2022-10-31T06:14:55;6.37;;;3.90;;
7561;SDS011;3822;48.784;9.174;2022-10-31T06:17:21;11.03;;;4.00;;
7561;SDS011;3822;48.784;9.174;2022-10-31T06:19:48;4.90;;;3.10;;
7561;SDS011;3822;48.784;9.174;2022-10-31T06:22:15;5.93;;;3.80;;
7561;SDS011;3822;48.784;9.174;2022-10-31T06:24:41;8.33;;;3.70;;
7561;SDS011;3822;48.784;9.174;2022-10-31T06:27:07;6.00;;;3.33;;
7561;SDS011;3822;48.784;9.174;2022-10-31T06:29:34;5.70;;;3.70;;
7561;SDS011;3822;48.784;9.174;2022-10-31T06:32:00;7.40;;;3.37;;
7561;SDS011;3822;48.784;9.174;2022-10-31T06:34:27;9.40;;;3.30;;
7561;SDS011;3822;48.784;9.174;2022-10-31T06:36:53;5.57;;;3.67;;
7561;SDS011;3822;48.784;9.174;2022-10-31T06:39:20;4.30;;;3.60;;
7561;SDS011;3822;48.784;9.174;2022-10-31T06:41:47;7.60;;;3.67;;
7561;SDS011;3822;48.784;9.174;2022-10-31T06:44:14;5.83;;;3.40;;
7561;SDS011;3822;48.784;9.174;2022-10-31T06:46:40;7.00;;;4.10;;
7561;SDS011;3822;48.784;9.174;2022-10-31T06:49:07;5.70;;;4.23;;
7561;SDS011;3822;48.784;9.174;2022-10-31T06:51:33;8.73;;;4.07;;
7561;SDS011;3822;48.784;9.174;2022-10-31T06:54:00;10.53;;;4.30;;
7561;SDS011;3822;48.784;9.174;2022-10-31T06:56:26;8.83;;;5.00;;
7561;SDS011;3822;48.784;9.174;2022-10-31T06:58:53;6.70;;;3.70;;
7561;SDS011;3822;48.784;9.174;2022-10-31T07:01:20;5.93;;;4.23;;
7561;SDS011;3822;48.784;9.174;2022-10-31T07:03:47;7.73;;;4.00;;
7561;SDS011;3822;48.784;9.174;2022-10-31T07:06:13;7.73;;;3.97;;
7561;SDS011;3822;48.784;9.174;2022-10-31T07:08:40;6.10;;;3.80;;
7561;SDS011;3822;48.784;9.174;2022-10-31T07:11:06;6.37;;;3.93;;
7561;SDS011;3822;48.784;9.174;2022-10-31T07:13:33;8.50;;;4.40;;
7561;SDS011;3822;48.784;9.174;2022-10-31T07:16:00;10.57;;;3.93;;
7561;SDS011;3822;48.784;9.174;2022-10-31T07:18:30;5.40;;;3.70;;
7561;SDS011;3822;48.784;9.174;2022-10-31T07:20:56;8.43;;;4.20;;
7561;SDS011;3822;48.784;9.174;2022-10-31T07:23:23;10.53;;;5.03;;
7561;SDS011;3822;48.784;9.174;2022-10-31T07:25:54;9.00;;;4.00;;
7561;SDS011;3822;48.784;9.174;2022-10-31T07:28:25;11.50;;;4.63;;
7561;SDS011;3822;48.784;9.174;2022-10-31T07:30:53;15.33;;;4.90;;
7561;SDS011;3822;48.784;9.174;2022-10-31T07:33:21;8.40;;;4.60;;
7561;SDS011;3822;48.784;9.174;2022-10-31T07:35:48;10.73;;;3.93;;
7561;SDS011;3822;48.784;9.174;2022-10-31T07:38:17;7.20;;;4.00;;
7561;SDS011;3822;48.784;9.174;2022-10-31T07:40:43;7.80;;;3.90;;
7561;SDS011;3822;48.784;9.174;2022-10-31T07:43:16;11.20;;;5.07;;
7561;SDS011;3822;48.784;9.174;2022-10-31T07:45:42;9.30;;;6.10;;
7561;SDS011;3822;48.784;9.174;2022-10-31T07:48:09;9.07;;;4.57;;
7561;SDS011;3822;48.784;9.174;2022-10-31T07:50:35;7.00;;;4.67;;
7561;SDS011;3822;48.784;9.174;2022-10-31T07:55:33;8.63;;;4.30;;
7561;SDS011;3822;48.784;9.174;2022-10-31T07:58:01;6.40;;;3.97;;
7561;SDS011;3822;48.784;9.174;2022-10-31T08:00:33;6.93;;;4.70;;
7561;SDS011;3822;48.784;9.174;2022-10-31T08:03:02;9.00;;;3.90;;
7561;SDS011;3822;48.784;9.174;2022-10-31T08:05:34;15.73;;;4.40;;
7561;SDS011;3822;48.784;9.174;2022-10-31T08:08:02;8.63;;;4.00;;
7561;SDS011;3822;48.784;9.174;2022-10-31T08:14:49;9.70;;;4.40;;
7561;SDS011;3822;48.784;9.174;2022-10-31T08:17:16;8.30;;;4.20;;
7561;SDS011;3822;48.784;9.174;2022-10-31T08:19:42;5.63;;;4.10;;
7561;SDS011;3822;48.784;9.174;2022-10-31T08:22:09;6.70;;;3.93;;
7561;SDS011;3822;48.784;9.174;2022-10-31T08:24:35;6.80;;;3.57;;
7561;SDS011;3822;48.784;9.174;2022-10-31T08:27:02;8.23;;;3.83;;
7561;SDS011;3822;48.784;9.174;2022-10-31T08:29:28;6.20;;;3.80;;
7561;SDS011;3822;48.784;9.174;2022-10-31T08:31:55;11.33;;;4.23;;
7561;SDS011;3822;48.784;9.174;2022-10-31T08:34:23;8.33;;;3.80;;
7561;SDS011;3822;48.784;9.174;2022-10-31T08:36:51;5.97;;;3.93;;
7561;SDS011;3822;48.784;9.174;2022-10-31T08:39:17;11.73;;;4.60;;
7561;SDS011;3822;48.784;9.174;2022-10-31T08:41:44;10.93;;;3.90;;
7561;SDS011;3822;48.784;9.174;2022-10-31T08:44:10;6.73;;;4.40;;
7561;SDS011;3822;48.784;9.174;2022-10-31T08:46:37;8.07;;;3.80;;
7561;SDS011;3822;48.784;9.174;2022-10-31T08:49:06;11.20;;;5.00;;
7561;SDS011;3822;48.784;9.174;2022-10-31T08:51:33;17.03;;;5.37;;
7561;SDS011;3822;48.784;9.174;2022-10-31T08:53:59;6.60;;;3.60;;
7561;SDS011;3822;48.784;9.174;2022-10-31T08:56:26;10.83;;;5.90;;
7561;SDS011;3822;48.784;9.174;2022-10-31T08:58:52;8.60;;;5.40;;
7561;SDS011;3822;48.784;9.174;2022-10-31T09:01:19;6.30;;;4.27;;
7561;SDS011;3822;48.784;9.174;2022-10-31T09:03:46;7.20;;;3.90;;
7561;SDS011;3822;48.784;9.174;2022-10-31T09:06:13;8.27;;;4.27;;
7561;SDS011;3822;48.784;9.174;2022-10-31T09:08:39;11.07;;;4.10;;
7561;SDS011;3822;48.784;9.174;2022-10-31T09:11:06;13.53;;;5.37;;
7561;SDS011;3822;48.784;9.174;2022-10-31T09:13:32;10.40;;;5.00;;
7561;SDS011;3822;48.784;9.174;2022-10-31T09:15:59;9.73;;;4.13;;
7561;SDS011;3822;48.784;9.174;2022-10-31T09:18:25;8.03;;;4.77;;
7561;SDS011;3822;48.784;9.174;2022-10-31T09:20:57;7.90;;;4.37;;
7561;SDS011;3822;48.784;9.174;2022-10-31T09:23:26;10.30;;;4.20;;
7561;SDS011;3822;48.784;9.174;2022-10-31T09:25:53;10.30;;;4.37;;
7561;SDS011;3822;48.784;9.174;2022-10-31T09:28:21;7.60;;;3.90;;
7561;SDS011;3822;48.784;9.174;2022-10-31T09:30:50;7.60;;;4.10;;
7561;SDS011;3822;48.784;9.174;2022-10-31T09:33:18;11.70;;;4.37;;
7561;SDS011;3822;48.784;9.174;2022-10-31T09:35:46;11.50;;;4.70;;
7561;SDS011;3822;48.784;9.174;2022-10-31T09:38:16;9.93;;;5.13;;
7561;SDS011;3822;48.784;9.174;2022-10-31T09:40:46;15.73;;;5.20;;
7561;SDS011;3822;48.784;9.174;2022-10-31T09:43:27;8.90;;;5.10;;
7561;SDS011;3822;48.784;9.174;2022-10-31T09:53:43;9.07;;;5.30;;
7561;SDS011;3822;48.784;9.174;2022-10-31T09:56:15;15.77;;;5.00;;
7561;SDS011;3822;48.784;9.174;2022-10-31T09:58:50;15.80;;;4.80;;
7561;SDS011;3822;48.784;9.174;2022-10-31T10:01:32;12.73;;;5.40;;
7561;SDS011;3822;48.784;9.174;2022-10-31T10:07:01;14.13;;;4.80;;
7561;SDS011;3822;48.784;9.174;2022-10-31T10:09:42;14.53;;;5.83;;
7561;SDS011;3822;48.784;9.174;2022-10-31T10:12:16;17.13;;;6.23;;
7561;SDS011;3822;48.784;9.174;2022-10-31T10:28:02;13.00;;;5.40;;
7561;SDS011;3822;48.784;9.174;2022-10-31T10:30:50;11.17;;;5.57;;
7561;SDS011;3822;48.784;9.174;2022-10-31T10:33:24;8.70;;;4.70;;
7561;SDS011;3822;48.784;9.174;2022-10-31T10:36:03;9.63;;;5.43;;
7561;SDS011;3822;48.784;9.174;2022-10-31T10:41:18;11.40;;;5.50;;
7561;SDS011;3822;48.784;9.174;2022-10-31T10:43:51;15.47;;;5.67;;
7561;SDS011;3822;48.784;9.174;2022-10-31T10:46:22;8.87;;;4.50;;
7561;SDS011;3822;48.784;9.174;2022-10-31T10:58:08;11.83;;;5.50;;
7561;SDS011;3822;48.784;9.174;2022-10-31T11:00:38;9.60;;;4.80;;
7561;SDS011;3822;48.784;9.174;2022-10-31T11:03:07;7.33;;;4.47;;
7561;SDS011;3822;48.784;9.174;2022-10-31T11:05:36;6.60;;;4.47;;
7561;SDS011;3822;48.784;9.174;2022-10-31T11:08:30;14.00;;;5.30;;
7561;SDS011;3822;48.784;9.174;2022-10-31T11:11:11;10.00;;;4.60;;
7561;SDS011;3822;48.784;9.174;2022-10-31T11:14:11;8.00;;;4.70;;
7561;SDS011;3822;48.784;9.174;2022-10-31T11:16:42;8.10;;;4.87;;
7561;SDS011;3822;48.784;9.174;2022-10-31T11:19:20;9.03;;;5.27;;
7561;SDS011;3822;48.784;9.174;2022-10-31T11:21:52;9.23;;;5.30;;
7561;SDS011;3822;48.784;9.174;2022-10-31T11:24:20;9.00;;;4.20;;
7561;SDS011;3822;48.784;9.174;2022-10-31T11:26:49;9.13;;;4.60;;
7561;SDS011;3822;48.784;9.174;2022-10-31T11:29:20;15.27;;;4.90;;
7561;SDS011;3822;48.784;9.174;2022-10-31T11:31:54;11.43;;;4.97;;
7561;SDS011;3822;48.784;9.174;2022-10-31T11:34:27;23.57;;;6.20;;
7561;SDS011;3822;48.784;9.174;2022-10-31T11:37:11;13.63;;;5.43;;
7561;SDS011;3822;48.784;9.174;2022-10-31T11:39:43;9.77;;;5.10;;
7561;SDS011;3822;48.784;9.174;2022-10-31T11:42:19;12.13;;;4.47;;
7561;SDS011;3822;48.784;9.174;2022-10-31T11:45:27;8.53;;;4.40;;
7561;SDS011;3822;48.784;9.174;2022-10-31T11:47:59;7.90;;;4.50;;
7561;SDS011;3822;48.784;9.174;2022-10-31T11:53:02;10.33;;;4.63;;
7561;SDS011;3822;48.784;9.174;2022-10-31T11:55:34;13.33;;;5.17;;
7561;SDS011;3822;48.784;9.174;2022-10-31T11:58:04;14.57;;;5.20;;
7561;SDS011;3822;48.784;9.174;2022-10-31T12:00:48;10.40;;;4.73;;
7561;SDS011;3822;48.784;9.174;2022-10-31T12:05:54;14.23;;;5.37;;
7561;SDS011;3822;48.784;9.174;2022-10-31T12:08:34;11.37;;;5.87;;
7561;SDS011;3822;48.784;9.174;2022-10-31T12:25:37;11.80;;;5.33;;
7561;SDS011;3822;48.784;9.174;2022-10-31T12:31:32;11.60;;;5.40;;
7561;SDS011;3822;48.784;9.174;2022-10-31T12:43:46;11.37;;;5.50;;
7561;SDS011;3822;48.784;9.174;2022-10-31T12:46:25;11.47;;;5.20;;
7561;SDS011;3822;48.784;9.174;2022-10-31T12:52:43;9.07;;;4.87;;
7561;SDS011;3822;48.784;9.174;2022-10-31T12:56:13;6.73;;;4.10;;
7561;SDS011;3822;48.784;9.174;2022-10-31T12:58:55;8.10;;;5.03;;
7561;SDS011;3822;48.784;9.174;2022-10-31T13:01:32;11.77;;;5.50;;
7561;SDS011;3822;48.784;9.174;2022-10-31T13:06:47;9.83;;;5.07;;
7561;SDS011;3822;48.784;9.174;2022-10-31T13:09:42;8.90;;;4.53;;
7561;SDS011;3822;48.784;9.174;2022-10-31T13:12:20;11.50;;;5.60;;
7561;SDS011;3822;48.784;9.174;2022-10-31T13:20:03;6.10;;;4.70;;
7561;SDS011;3822;48.784;9.174;2022-10-31T13:22:44;13.30;;;6.23;;
7561;SDS011;3822;48.784;9.174;2022-10-31T13:25:16;10.67;;;5.83;;
7561;SDS011;3822;48.784;9.174;2022-10-31T13:27:56;6.90;;;5.17;;
7561;SDS011;3822;48.784;9.174;2022-10-31T13:30:30;17.87;;;6.00;;
7561;SDS011;3822;48.784;9.174;2022-10-31T13:33:04;10.20;;;5.27;;
7561;SDS011;3822;48.784;9.174;2022-10-31T13:35:53;8.13;;;4.97;;
7561;SDS011;3822;48.784;9.174;2022-10-31T13:38:59;7.40;;;4.60;;
7561;SDS011;3822;48.784;9.174;2022-10-31T13:44:35;8.73;;;4.30;;
7561;SDS011;3822;48.784;9.174;2022-10-31T13:47:21;7.37;;;4.30;;
7561;SDS011;3822;48.784;9.174;2022-10-31T13:50:19;11.73;;;5.20;;
7561;SDS011;3822;48.784;9.174;2022-10-31T13:53:03;11.40;;;5.50;;
7561;SDS011;3822;48.784;9.174;2022-10-31T13:55:47;9.53;;;4.80;;
7561;SDS011;3822;48.784;9.174;2022-10-31T13:58:28;19.43;;;5.67;;
7561;SDS011;3822;48.784;9.174;2022-10-31T14:06:45;7.00;;;4.60;;
7561;SDS011;3822;48.784;9.174;2022-10-31T14:12:27;12.70;;;5.20;;
7561;SDS011;3822;48.784;9.174;2022-10-31T14:15:04;9.90;;;5.50;;
7561;SDS011;3822;48.784;9.174;2022-10-31T14:17:51;12.87;;;5.37;;
7561;SDS011;3822;48.784;9.174;2022-10-31T14:23:10;8.33;;;4.73;;
7561;SDS011;3822;48.784;9.174;2022-10-31T14:25:39;12.00;;;5.60;;
7561;SDS011;3822;48.784;9.174;2022-10-31T14:28:22;14.23;;;6.13;;
7561;SDS011;3822;48.784;9.174;2022-10-31T14:31:00;9.33;;;5.23;;
7561;SDS011;3822;48.784;9.174;2022-10-31T14:33:30;8.63;;;5.47;;
7561;SDS011;3822;48.784;9.174;2022-10-31T14:36:04;9.90;;;5.53;;
7561;SDS011;3822;48.784;9.174;2022-10-31T14:38:54;14.30;;;5.23;;
7561;SDS011;3822;48.784;9.174;2022-10-31T14:50:37;8.63;;;4.73;;
7561;SDS011;3822;48.784;9.174;2022-10-31T14:53:15;12.37;;;5.43;;
7561;SDS011;3822;48.784;9.174;2022-10-31T14:55:55;7.77;;;4.07;;
7561;SDS011;3822;48.784;9.174;2022-10-31T15:04:03;10.50;;;5.27;;
7561;SDS011;3822;48.784;9.174;2022-10-31T15:06:47;7.83;;;4.83;;
7561;SDS011;3822;48.784;9.174;2022-10-31T15:09:22;8.13;;;3.97;;
7561;SDS011;3822;48.784;9.174;2022-10-31T15:11:51;8.03;;;4.73;;
7561;SDS011;3822;48.784;9.174;2022-10-31T15:14:27;8.43;;;5.10;;
7561;SDS011;3822;48.784;9.174;2022-10-31T15:17:01;8.10;;;4.63;;
7561;SDS011;3822;48.784;9.174;2022-10-31T15:19:30;14.03;;;4.80;;
7561;SDS011;3822;48.784;9.174;2022-10-31T15:21:58;6.60;;;4.47;;
7561;SDS011;3822;48.784;9.174;2022-10-31T15:24:34;9.00;;;4.50;;
7561;SDS011;3822;48.784;9.174;2022-10-31T15:27:02;8.50;;;4.67;;
7561;SDS011;3822;48.784;9.174;2022-10-31T15:29:29;7.60;;;4.20;;
7561;SDS011;3822;48.784;9.174;2022-10-31T15:31:56;8.13;;;4.93;;
7561;SDS011;3822;48.784;9.174;2022-10-31T15:34:36;7.77;;;4.80;;
7561;SDS011;3822;48.784;9.174;2022-10-31T15:37:09;8.50;;;4.90;;
7561;SDS011;3822;48.784;9.174;2022-10-31T15:39:42;11.60;;;6.03;;
7561;SDS011;3822;48.784;9.174;2022-10-31T15:42:21;6.30;;;4.37;;
7561;SDS011;3822;48.784;9.174;2022-10-31T15:45:21;8.93;;;5.27;;
7561;SDS011;3822;48.784;9.174;2022-10-31T15:47:53;12.30;;;5.63;;
7561;SDS011;3822;48.784;9.174;2022-10-31T15:50:28;10.03;;;4.50;;
7561;SDS011;3822;48.784;9.174;2022-10-31T15:53:05;6.63;;;4.40;;
7561;SDS011;3822;48.784;9.174;2022-10-31T15:55:54;8.30;;;4.47;;
7561;SDS011;3822;48.784;9.174;2022-10-31T15:58:33;8.20;;;4.50;;
7561;SDS011;3822;48.784;9.174;2022-10-31T16:06:37;11.40;;;5.17;;
7561;SDS011;3822;48.784;9.174;2022-10-31T16:09:18;9.07;;;4.80;;
7561;SDS011;3822;48.784;9.174;2022-10-31T16:11:49;13.33;;;5.93;;
7561;SDS011;3822;48.784;9.174;2022-10-31T16:16:45;8.37;;;4.97;;
7561;SDS011;3822;48.784;9.174;2022-10-31T16:19:22;9.87;;;5.50;;
7561;SDS011;3822;48.784;9.174;2022-10-31T16:22:20;11.80;;;5.90;;
7561;SDS011;3822;48.784;9.174;2022-10-31T16:24:55;9.63;;;5.50;;
7561;SDS011;3822;48.784;9.174;2022-10-31T16:27:32;13.23;;;5.33;;
7561;SDS011;3822;48.784;9.174;2022-10-31T16:30:00;13.10;;;6.03;;
7561;SDS011;3822;48.784;9.174;2022-10-31T16:32:53;7.27;;;4.80;;
7561;SDS011;3822;48.784;9.174;2022-10-31T16:35:36;10.57;;;5.70;;
7561;SDS011;3822;48.784;9.174;2022-10-31T16:38:04;23.57;;;6.10;;
7561;SDS011;3822;48.784;9.174;2022-10-31T16:40:31;13.60;;;6.60;;
7561;SDS011;3822;48.784;9.174;2022-10-31T16:42:59;12.80;;;6.73;;
7561;SDS011;3822;48.784;9.174;2022-10-31T16:45:27;11.73;;;6.03;;
7561;SDS011;3822;48.784;9.174;2022-10-31T16:48:08;11.90;;;6.47;;
7561;SDS011;3822;48.784;9.174;2022-10-31T16:50:41;12.63;;;6.50;;
7561;SDS011;3822;48.784;9.174;2022-10-31T16:53:09;12.23;;;6.43;;
7561;SDS011;3822;48.784;9.174;2022-10-31T16:55:41;12.43;;;6.80;;
7561;SDS011;3822;48.784;9.174;2022-10-31T16:58:22;11.93;;;6.73;;
7561;SDS011;3822;48.784;9.174;2022-10-31T17:00:51;10.67;;;6.00;;
7561;SDS011;3822;48.784;9.174;2022-10-31T17:03:19;10.67;;;5.57;;
7561;SDS011;3822;48.784;9.174;2022-10-31T17:05:46;10.50;;;5.77;;
7561;SDS011;3822;48.784;9.174;2022-10-31T17:08:12;11.27;;;6.37;;
7561;SDS011;3822;48.784;9.174;2022-10-31T17:10:39;13.90;;;6.30;;
7561;SDS011;3822;48.784;9.174;2022-10-31T17:13:10;13.83;;;6.80;;
7561;SDS011;3822;48.784;9.174;2022-10-31T17:15:47;9.23;;;5.70;;
7561;SDS011;3822;48.784;9.174;2022-10-31T17:18:19;11.10;;;5.50;;
7561;SDS011;3822;48.784;9.174;2022-10-31T17:20:46;11.35;;;6.10;;
7561;SDS011;3822;48.784;9.174;2022-10-31T17:23:14;18.87;;;7.27;;
7561;SDS011;3822;48.784;9.174;2022-10-31T17:25:42;10.43;;;5.80;;
7561;SDS011;3822;48.784;9.174;2022-10-31T17:28:10;10.93;;;6.30;;
7561;SDS011;3822;48.784;9.174;2022-10-31T17:30:39;16.20;;;6.90;;
7561;SDS011;3822;48.784;9.174;2022-10-31T17:33:16;12.30;;;6.80;;
7561;SDS011;3822;48.784;9.174;2022-10-31T17:35:44;11.73;;;6.80;;
7561;SDS011;3822;48.784;9.174;2022-10-31T17:38:11;11.47;;;7.07;;
7561;SDS011;3822;48.784;9.174;2022-10-31T17:40:38;14.50;;;6.43;;
7561;SDS011;3822;48.784;9.174;2022-10-31T17:43:08;15.70;;;7.30;;
7561;SDS011;3822;48.784;9.174;2022-10-31T17:45:40;13.07;;;6.30;;
7561;SDS011;3822;48.784;9.174;2022-10-31T17:48:08;13.03;;;6.50;;
7561;SDS011;3822;48.784;9.174;2022-10-31T17:50:37;11.13;;;6.13;;
7561;SDS011;3822;48.784;9.174;2022-10-31T17:53:06;11.27;;;6.97;;
7561;SDS011;3822;48.784;9.174;2022-10-31T17:55:36;11.97;;;6.90;;
7561;SDS011;3822;48.784;9.174;2022-10-31T17:58:03;13.03;;;7.00;;
7561;SDS011;3822;48.784;9.174;2022-10-31T18:00:29;12.77;;;6.03;;
7561;SDS011;3822;48.784;9.174;2022-10-31T18:02:56;14.37;;;7.37;;
7561;SDS011;3822;48.784;9.174;2022-10-31T18:05:22;12.63;;;6.70;;
7561;SDS011;3822;48.784;9.174;2022-10-31T18:07:49;15.83;;;8.00;;
7561;SDS011;3822;48.784;9.174;2022-10-31T18:10:16;14.40;;;7.13;;
7561;SDS011;3822;48.784;9.174;2022-10-31T18:12:43;14.23;;;7.67;;
7561;SDS011;3822;48.784;9.174;2022-10-31T18:15:09;14.57;;;7.20;;
7561;SDS011;3822;48.784;9.174;2022-10-31T18:17:36;11.70;;;7.53;;
7561;SDS011;3822;48.784;9.174;2022-10-31T18:20:02;17.57;;;9.23;;
7561;SDS011;3822;48.784;9.174;2022-10-31T18:22:29;12.53;;;7.50;;